Peterson, Minnesota
Current Conditions -  °F | °C
As of 7:55 AM on Monday 20 Oct 2014 (Local Time) from KFKA Reporting Station
Clear Clear  
Wind Chill: 38°   Ceiling: Unl
Heat Index: 42°   Visibility: 10mi
Dew Point: 39°   Wind: 6mph
Humidity: 89%   Direction: 300°WNW
Pressure: 29.96"   Gusts: NA
Location:  43.79°N, 91.83°W
Report Text: KFKA 201255Z AUTO 30005KT 10SM CLR 06/04 A2996 RMK AO2 T00550038
Loading
Personal Weather Stations






























Interactive Weather Map
Tropical Storm Tracking
New forecast layout! Learn more

10-Day Weather Forecast

Advertisements
Track Severe Weather on mobile